createdAt,value
2022-11-21T00:00:29.036Z,88.59
2022-11-21T00:02:59.946Z,87.42
2022-11-21T00:05:26.403Z,87.85
2022-11-21T00:07:52.813Z,87.72
2022-11-21T00:10:19.259Z,87.73
2022-11-21T00:12:45.651Z,87.71
2022-11-21T00:15:12.204Z,87.65
2022-11-21T00:17:38.632Z,88.17
2022-11-21T00:20:05.545Z,87.74
2022-11-21T00:22:32.150Z,88.14
2022-11-21T00:24:59.131Z,88.35
2022-11-21T00:27:25.538Z,88.58
2022-11-21T00:29:51.970Z,88.90
2022-11-21T00:32:18.345Z,88.19
2022-11-21T00:34:44.721Z,88.20
2022-11-21T00:37:11.167Z,87.71
2022-11-21T00:39:37.541Z,88.14
2022-11-21T00:42:04.131Z,88.48
2022-11-21T00:44:30.634Z,88.12
2022-11-21T00:46:57.250Z,88.24
2022-11-21T00:49:23.716Z,89.07
2022-11-21T00:51:50.112Z,89.19
2022-11-21T00:54:16.498Z,89.80
2022-11-21T00:56:42.965Z,89.67
2022-11-21T00:59:09.555Z,90.18
2022-11-21T01:01:35.958Z,90.74
2022-11-21T01:04:02.406Z,90.31
2022-11-21T01:06:28.821Z,90.71
2022-11-21T01:08:55.233Z,91.10
2022-11-21T01:11:21.908Z,91.00
2022-11-21T01:13:49.332Z,90.86
2022-11-21T01:16:19.014Z,91.37
2022-11-21T01:18:46.112Z,91.90
2022-11-21T01:21:19.099Z,91.25
2022-11-21T01:23:45.845Z,91.08
2022-11-21T01:26:15.611Z,91.03
2022-11-21T01:28:42.279Z,91.51
2022-11-21T01:31:18.810Z,91.60
2022-11-21T01:33:46.180Z,91.81
2022-11-21T01:36:18.480Z,91.64
2022-11-21T01:38:47.863Z,91.01
2022-11-21T01:41:17.523Z,91.98
2022-11-21T01:43:44.361Z,91.72
2022-11-21T01:46:14.875Z,91.38
2022-11-21T01:48:53.679Z,91.18
2022-11-21T01:51:20.118Z,90.19
2022-11-21T01:54:11.961Z,91.07
2022-11-21T01:56:46.868Z,91.18
2022-11-21T01:59:20.602Z,90.12
2022-11-21T02:01:49.444Z,90.50
2022-11-21T02:04:16.037Z,90.89
2022-11-21T02:06:43.447Z,90.18
2022-11-21T02:09:09.892Z,90.67
2022-11-21T02:11:47.801Z,89.81
2022-11-21T02:14:14.457Z,90.29
2022-11-21T02:16:40.939Z,90.11
2022-11-21T02:19:15.267Z,89.56
2022-11-21T02:21:52.828Z,89.50
2022-11-21T02:24:27.438Z,89.38
2022-11-21T02:26:54.160Z,89.91
2022-11-21T02:29:20.719Z,89.52
2022-11-21T02:31:47.242Z,89.50
2022-11-21T02:34:13.748Z,89.96
2022-11-21T02:36:44.126Z,90.14
2022-11-21T02:39:16.016Z,90.73
2022-11-21T02:41:51.534Z,90.82
2022-11-21T02:44:34.214Z,90.58
2022-11-21T02:47:00.613Z,91.81
2022-11-21T02:49:53.839Z,91.93
2022-11-21T02:52:20.211Z,91.98
2022-11-21T02:54:46.595Z,92.51
2022-11-21T02:57:12.987Z,92.34
2022-11-21T02:59:39.433Z,93.17
2022-11-21T03:02:05.833Z,92.58
2022-11-21T03:04:32.338Z,93.04
2022-11-21T03:06:58.876Z,93.00
2022-11-21T03:09:25.465Z,93.11
2022-11-21T03:11:51.838Z,93.37
2022-11-21T03:14:18.217Z,93.80
2022-11-21T03:16:44.593Z,93.77
2022-11-21T03:19:10.999Z,93.71
2022-11-21T03:21:37.407Z,93.49
2022-11-21T03:24:04.158Z,94.07
2022-11-21T03:26:30.559Z,94.13
2022-11-21T03:28:56.945Z,94.17
2022-11-21T03:31:23.347Z,94.39
2022-11-21T03:33:49.732Z,94.40
2022-11-21T03:36:16.117Z,94.31
2022-11-21T03:38:42.691Z,94.82
2022-11-21T03:41:29.045Z,94.40
2022-11-21T03:43:56.895Z,94.43
2022-11-21T03:46:23.442Z,94.60
2022-11-21T03:48:49.849Z,94.70
2022-11-21T03:51:16.277Z,95.23
2022-11-21T03:53:42.711Z,94.83
2022-11-21T03:56:09.106Z,94.90
2022-11-21T03:58:35.575Z,94.90
2022-11-21T04:01:02.050Z,94.99
2022-11-21T04:03:28.504Z,95.34
2022-11-21T04:05:54.903Z,94.98
2022-11-21T04:08:21.369Z,94.77
2022-11-21T04:10:49.466Z,94.83
2022-11-21T04:13:16.027Z,95.01
2022-11-21T04:15:43.142Z,95.59
2022-11-21T04:18:09.749Z,95.66
2022-11-21T04:20:36.478Z,95.80
2022-11-21T04:23:02.908Z,95.74
2022-11-21T04:25:29.629Z,95.73
2022-11-21T04:27:57.292Z,95.84
2022-11-21T04:30:23.703Z,95.82
2022-11-21T04:32:56.833Z,95.96
2022-11-21T04:35:24.666Z,95.71
2022-11-21T04:37:51.939Z,95.47
2022-11-21T04:40:18.555Z,96.09
2022-11-21T04:42:47.070Z,95.92
2022-11-21T04:45:15.405Z,96.12
2022-11-21T04:47:46.411Z,96.26
2022-11-21T04:50:15.530Z,96.05
2022-11-21T04:52:42.571Z,96.18
2022-11-21T04:55:10.032Z,96.01
2022-11-21T04:57:36.490Z,96.39
2022-11-21T05:00:03.463Z,96.44
2022-11-21T05:02:29.848Z,96.05
2022-11-21T05:04:56.245Z,96.12
2022-11-21T05:07:22.686Z,95.97
2022-11-21T05:09:49.161Z,96.20
2022-11-21T05:12:34.166Z,96.76
2022-11-21T05:15:00.599Z,96.94
2022-11-21T05:17:29.998Z,96.58
2022-11-21T05:19:56.400Z,96.49
2022-11-21T05:22:22.800Z,96.62
2022-11-21T05:24:49.240Z,96.58
2022-11-21T05:27:15.660Z,96.56
2022-11-21T05:29:42.139Z,97.29
2022-11-21T05:32:08.617Z,96.63
2022-11-21T05:34:35.099Z,97.26
2022-11-21T05:37:01.517Z,97.22
2022-11-21T05:39:28.126Z,97.42
2022-11-21T05:41:59.788Z,96.89
2022-11-21T05:44:29.355Z,96.76
2022-11-21T05:46:55.949Z,96.80
2022-11-21T05:49:22.416Z,95.85
2022-11-21T05:51:48.866Z,95.85
2022-11-21T05:54:15.631Z,95.56
2022-11-21T05:56:42.081Z,94.91
2022-11-21T05:59:10.864Z,94.73
2022-11-21T06:01:56.513Z,94.51
2022-11-21T06:04:22.896Z,95.22
2022-11-21T06:06:49.324Z,95.10
2022-11-21T06:09:15.723Z,94.98
2022-11-21T06:11:42.131Z,94.76
2022-11-21T06:14:08.509Z,94.19
2022-11-21T06:16:34.888Z,94.68
2022-11-21T06:19:01.278Z,94.47
2022-11-21T06:21:29.203Z,93.73
2022-11-21T06:23:58.062Z,93.18
2022-11-21T06:26:26.359Z,93.09
2022-11-21T06:28:52.761Z,93.17
2022-11-21T06:31:22.181Z,92.88
2022-11-21T06:33:52.628Z,93.45
2022-11-21T06:36:19.513Z,93.09
2022-11-21T06:38:46.363Z,93.26
2022-11-21T06:41:15.268Z,93.27
2022-11-21T06:43:42.362Z,93.50
2022-11-21T06:46:09.219Z,93.23
2022-11-21T06:48:37.242Z,92.39
2022-11-21T06:51:09.078Z,92.25
2022-11-21T06:53:35.477Z,92.07
2022-11-21T06:56:02.615Z,91.69
2022-11-21T06:58:29.424Z,91.94
2022-11-21T07:00:56.237Z,91.65
2022-11-21T07:03:22.953Z,92.63
2022-11-21T07:05:50.178Z,91.95
2022-11-21T07:08:16.591Z,92.05
2022-11-21T07:11:03.375Z,91.57
2022-11-21T07:13:29.985Z,92.50
2022-11-21T07:16:02.255Z,91.79
2022-11-21T07:18:29.140Z,91.50
2022-11-21T07:21:04.102Z,91.78
2022-11-21T07:23:31.641Z,92.29
2022-11-21T07:26:02.431Z,92.09
2022-11-21T07:28:29.916Z,92.55
2022-11-21T07:31:01.031Z,92.66
2022-11-21T07:33:27.664Z,92.52
2022-11-21T07:35:58.099Z,92.64
2022-11-21T07:38:25.309Z,92.49
2022-11-21T07:40:52.169Z,93.34
2022-11-21T07:43:19.014Z,93.44
2022-11-21T07:45:45.455Z,93.07
2022-11-21T07:48:12.924Z,93.13
2022-11-21T07:50:39.952Z,93.53
2022-11-21T07:53:09.236Z,93.68
2022-11-21T07:55:40.415Z,94.01
2022-11-21T07:58:13.391Z,93.14
2022-11-21T08:00:42.866Z,92.98
2022-11-21T08:03:11.970Z,92.55
2022-11-21T08:05:40.278Z,92.75
2022-11-21T08:08:07.175Z,92.19
2022-11-21T08:10:34.044Z,92.78
2022-11-21T08:13:00.476Z,92.34
2022-11-21T08:15:26.876Z,92.94
2022-11-21T08:17:53.333Z,91.82
2022-11-21T08:20:19.770Z,92.46
2022-11-21T08:22:46.155Z,92.02
2022-11-21T08:25:12.708Z,91.40
2022-11-21T08:27:39.815Z,91.94
2022-11-21T08:30:07.990Z,92.09
2022-11-21T08:32:34.589Z,92.01
2022-11-21T08:35:01.124Z,91.10
2022-11-21T08:37:29.407Z,91.35
2022-11-21T08:39:58.853Z,90.80
2022-11-21T08:42:25.983Z,91.27
2022-11-21T08:44:52.703Z,90.41
2022-11-21T08:47:20.511Z,90.72
2022-11-21T08:49:47.595Z,90.89
2022-11-21T08:52:17.121Z,90.98
2022-11-21T08:54:44.535Z,91.01
2022-11-21T08:57:11.161Z,91.15
2022-11-21T08:59:37.564Z,91.11
2022-11-21T09:02:04.042Z,90.58
2022-11-21T09:04:30.679Z,90.74
2022-11-21T09:06:57.304Z,90.76
2022-11-21T09:09:25.500Z,91.28
2022-11-21T09:11:52.202Z,90.46
2022-11-21T09:14:37.423Z,89.42
2022-11-21T09:17:22.280Z,87.74
2022-11-21T09:19:49.048Z,86.46
2022-11-21T09:22:15.427Z,85.87
2022-11-21T09:24:41.880Z,86.19
2022-11-21T09:27:08.256Z,86.11
2022-11-21T09:29:34.657Z,85.29
2022-11-21T09:32:01.136Z,85.16
2022-11-21T09:34:27.786Z,83.72
2022-11-21T09:36:55.442Z,83.03
2022-11-21T09:39:22.141Z,81.74
2022-11-21T09:41:54.381Z,81.90
2022-11-21T09:44:33.004Z,82.09
2022-11-21T09:47:12.505Z,81.62
2022-11-21T09:49:43.980Z,81.82
2022-11-21T09:52:12.257Z,82.27
2022-11-21T09:54:54.272Z,81.54
2022-11-21T09:57:24.130Z,81.98
2022-11-21T09:59:52.398Z,81.49
2022-11-21T10:02:21.382Z,81.88
2022-11-21T10:04:49.007Z,82.28
2022-11-21T10:07:26.031Z,81.78
2022-11-21T10:10:12.470Z,79.44
2022-11-21T10:12:55.684Z,78.04
2022-11-21T10:15:54.784Z,77.62
2022-11-21T10:18:55.700Z,77.65
2022-11-21T10:21:51.442Z,76.79
2022-11-21T10:24:40.688Z,77.63
2022-11-21T10:27:24.230Z,76.64
2022-11-21T10:29:58.983Z,76.23
2022-11-21T10:32:36.475Z,75.34
2022-11-21T10:35:14.120Z,75.11
2022-11-21T10:37:46.346Z,74.99
2022-11-21T10:40:22.010Z,74.49
2022-11-21T10:43:27.189Z,74.72
2022-11-21T10:45:54.291Z,74.09
2022-11-21T10:48:20.724Z,74.81
2022-11-21T10:51:10.969Z,74.38
2022-11-21T10:53:55.780Z,71.66
2022-11-21T10:56:23.114Z,72.81
2022-11-21T10:58:52.225Z,73.34
2022-11-21T11:01:30.815Z,72.49
2022-11-21T11:04:26.232Z,71.32
2022-11-21T11:06:51.506Z,69.05
2022-11-21T11:09:24.054Z,67.94
2022-11-21T11:11:50.617Z,65.78
2022-11-21T11:14:28.892Z,66.39
2022-11-21T11:16:55.700Z,66.54
2022-11-21T11:19:35.457Z,67.93
2022-11-21T11:22:05.056Z,66.59
2022-11-21T11:24:31.456Z,65.17
2022-11-21T11:27:02.658Z,63.76
2022-11-21T11:29:35.224Z,63.49
2022-11-21T11:32:16.413Z,64.08
2022-11-21T11:35:00.372Z,63.80
2022-11-21T11:37:49.254Z,62.57
2022-11-21T11:40:34.534Z,62.96
2022-11-21T11:43:44.336Z,63.90
2022-11-21T11:46:36.226Z,64.40
2022-11-21T11:49:24.605Z,65.37
2022-11-21T11:51:54.900Z,66.26
2022-11-21T11:54:34.375Z,65.75
2022-11-21T11:57:01.144Z,65.86
2022-11-21T11:59:40.011Z,65.57
2022-11-21T12:02:16.709Z,65.39
2022-11-21T12:04:51.046Z,65.96
2022-11-21T12:10:23.570Z,64.19
2022-11-21T12:13:05.433Z,64.39
2022-11-21T12:15:52.552Z,63.95
2022-11-21T12:18:19.354Z,60.13
2022-11-21T12:20:52.284Z,58.82
2022-11-21T12:23:19.884Z,57.86
2022-11-21T12:25:59.555Z,57.10
2022-11-21T12:28:31.982Z,57.59
2022-11-21T12:31:09.230Z,57.75
2022-11-21T12:33:46.971Z,58.17
2022-11-21T12:36:35.594Z,58.83
2022-11-21T12:39:33.953Z,59.64
2022-11-21T12:42:38.289Z,60.17
2022-11-21T12:45:07.439Z,60.76
2022-11-21T12:48:21.799Z,61.01
2022-11-21T12:51:46.024Z,61.52
2022-11-21T12:54:37.796Z,61.81
2022-11-21T12:57:14.102Z,62.31
2022-11-21T13:00:02.097Z,62.32
2022-11-21T13:02:59.217Z,62.88
2022-11-21T13:05:32.613Z,62.64
2022-11-21T13:08:24.161Z,63.47
2022-11-21T13:11:27.569Z,63.78
2022-11-21T13:14:07.214Z,63.86
2022-11-21T13:16:36.998Z,64.00
2022-11-21T13:19:23.078Z,64.04
2022-11-21T13:21:53.080Z,63.78
2022-11-21T13:24:44.559Z,63.16
2022-11-21T13:27:40.364Z,63.13
2022-11-21T13:30:06.790Z,62.40
2022-11-21T13:32:44.004Z,61.58
2022-11-21T13:35:16.535Z,59.50
2022-11-21T13:37:52.450Z,58.46
2022-11-21T13:40:27.851Z,57.83
2022-11-21T13:45:58.743Z,55.32
2022-11-21T13:48:31.280Z,53.81
2022-11-21T13:51:12.698Z,53.02
2022-11-21T13:53:57.599Z,52.41
2022-11-21T13:56:35.058Z,52.80
2022-11-21T13:59:28.512Z,51.26
2022-11-21T14:02:22.801Z,50.94
2022-11-21T14:05:34.150Z,50.89
2022-11-21T14:08:22.521Z,52.00
2022-11-21T14:10:52.641Z,51.60
2022-11-21T14:13:33.213Z,50.69
2022-11-21T14:16:21.165Z,49.46
2022-11-21T14:18:47.909Z,50.06
2022-11-21T14:21:30.860Z,50.57
2022-11-21T14:24:04.170Z,51.11
2022-11-21T14:26:40.324Z,52.49
2022-11-21T14:29:28.250Z,53.37
2022-11-21T14:31:55.747Z,54.21
2022-11-21T14:34:31.145Z,54.92
2022-11-21T14:36:59.756Z,56.05
2022-11-21T14:39:39.888Z,56.58
2022-11-21T14:42:15.009Z,57.24
2022-11-21T14:44:42.302Z,58.19
2022-11-21T14:47:18.447Z,58.99
2022-11-21T14:49:55.895Z,60.12
2022-11-21T14:52:31.438Z,60.82
2022-11-21T14:55:28.559Z,61.42
2022-11-21T14:57:47.132Z,62.04
2022-11-21T15:00:43.382Z,62.97
2022-11-21T15:03:03.257Z,63.71
2022-11-21T15:06:03.985Z,64.13
2022-11-21T15:11:11.536Z,65.88
2022-11-21T15:13:58.527Z,66.02
2022-11-21T15:16:25.410Z,67.44
2022-11-21T15:18:51.856Z,67.76
2022-11-21T15:21:18.353Z,68.47
2022-11-21T15:23:45.387Z,69.12
2022-11-21T15:26:32.996Z,68.51
2022-11-21T15:29:00.876Z,69.12
2022-11-21T15:31:27.950Z,69.69
2022-11-21T15:37:03.585Z,70.55
2022-11-21T15:39:30.342Z,71.27
2022-11-21T15:42:35.910Z,71.85
2022-11-21T15:45:19.896Z,72.47
2022-11-21T15:47:47.036Z,72.91
2022-11-21T15:50:14.215Z,73.23
2022-11-21T15:52:48.765Z,73.68
2022-11-21T15:55:24.633Z,73.40
2022-11-21T15:57:51.113Z,74.66
2022-11-21T16:00:18.613Z,74.84
2022-11-21T16:02:45.070Z,74.23
2022-11-21T16:05:13.192Z,75.24
2022-11-21T16:07:40.850Z,75.21
2022-11-21T16:10:14.885Z,75.38
2022-11-21T16:12:47.114Z,75.83
2022-11-21T16:15:14.129Z,75.61
2022-11-21T16:17:41.586Z,76.74
2022-11-21T16:20:08.456Z,76.54
2022-11-21T16:22:34.847Z,78.20
2022-11-21T16:25:01.218Z,77.76
2022-11-21T16:27:27.819Z,78.10
2022-11-21T16:29:54.214Z,78.65
2022-11-21T16:32:20.611Z,78.99
2022-11-21T16:34:47.201Z,79.17
2022-11-21T16:37:14.388Z,79.05
2022-11-21T16:39:41.810Z,79.63
2022-11-21T16:42:10.255Z,79.06
2022-11-21T16:44:36.648Z,79.02
2022-11-21T16:47:08.051Z,79.85
2022-11-21T16:49:36.235Z,79.12
2022-11-21T16:52:02.734Z,79.58
2022-11-21T16:54:29.123Z,78.99
2022-11-21T16:56:55.516Z,79.37
2022-11-21T16:59:21.904Z,79.41
2022-11-21T17:01:48.463Z,79.86
2022-11-21T17:04:17.517Z,80.06
2022-11-21T17:06:45.424Z,80.70
2022-11-21T17:09:12.282Z,81.09
2022-11-21T17:11:38.729Z,80.85
2022-11-21T17:14:06.586Z,81.15
2022-11-21T17:16:34.335Z,81.45
2022-11-21T17:19:01.996Z,81.07
2022-11-21T17:21:29.372Z,81.76
2022-11-21T17:23:55.952Z,81.95
2022-11-21T17:26:24.539Z,81.87
2022-11-21T17:28:58.562Z,82.00
2022-11-21T17:31:25.456Z,81.84
2022-11-21T17:33:52.610Z,82.75
2022-11-21T17:36:21.390Z,82.21
2022-11-21T17:38:48.181Z,82.29
2022-11-21T17:41:18.022Z,81.74
2022-11-21T17:43:45.158Z,82.68
2022-11-21T17:46:19.855Z,82.66
2022-11-21T17:48:54.325Z,83.02
2022-11-21T17:51:25.354Z,82.79
2022-11-21T17:53:52.710Z,82.66
2022-11-21T17:56:21.594Z,82.89
2022-11-21T17:58:48.352Z,83.38
2022-11-21T18:01:19.541Z,83.53
2022-11-21T18:03:47.183Z,82.73
2022-11-21T18:06:15.691Z,84.23
2022-11-21T18:08:44.789Z,83.12
2022-11-21T18:11:13.922Z,83.28
2022-11-21T18:13:41.013Z,83.47
2022-11-21T18:16:10.684Z,83.42
2022-11-21T18:18:37.735Z,83.91
2022-11-21T18:21:12.444Z,83.43
2022-11-21T18:23:39.108Z,83.70
2022-11-21T18:26:21.184Z,83.47
2022-11-21T18:29:07.203Z,83.54
2022-11-21T18:31:39.247Z,83.20
2022-11-21T18:34:06.712Z,83.71
2022-11-21T18:36:33.578Z,83.83
2022-11-21T18:39:07.159Z,83.77
2022-11-21T18:41:38.764Z,84.29
2022-11-21T18:44:06.507Z,83.97
2022-11-21T18:46:35.759Z,84.39
2022-11-21T18:49:05.891Z,84.43
2022-11-21T18:51:33.900Z,84.60
2022-11-21T18:54:07.185Z,85.28
2022-11-21T18:56:34.337Z,84.43
2022-11-21T18:59:00.994Z,85.39
2022-11-21T19:01:29.358Z,85.34
2022-11-21T19:03:56.316Z,85.20
2022-11-21T19:06:24.807Z,85.24
2022-11-21T19:08:55.965Z,85.61
2022-11-21T19:11:24.802Z,85.53
2022-11-21T19:13:52.486Z,86.61
2022-11-21T19:16:21.624Z,86.31
2022-11-21T19:19:11.494Z,86.30
2022-11-21T19:21:38.815Z,86.37
2022-11-21T19:24:09.305Z,86.40
2022-11-21T19:26:35.765Z,86.67
2022-11-21T19:29:02.217Z,87.23
2022-11-21T19:31:28.702Z,86.98
2022-11-21T19:33:55.178Z,86.65
2022-11-21T19:36:23.649Z,87.43
2022-11-21T19:38:51.711Z,87.53
2022-11-21T19:41:28.001Z,87.48
2022-11-21T19:43:57.390Z,87.45
2022-11-21T19:46:26.588Z,87.72
2022-11-21T19:48:55.796Z,87.87
2022-11-21T19:51:24.914Z,87.76
2022-11-21T19:53:51.352Z,88.38
2022-11-21T19:56:20.475Z,88.59
2022-11-21T19:58:47.785Z,88.76
2022-11-21T20:01:16.738Z,88.96
2022-11-21T20:03:45.216Z,88.91
2022-11-21T20:06:23.011Z,89.21
2022-11-21T20:08:51.940Z,89.54
2022-11-21T20:11:18.393Z,89.02
2022-11-21T20:13:45.558Z,89.24
2022-11-21T20:16:26.658Z,89.57
2022-11-21T20:18:55.913Z,89.05
2022-11-21T20:21:22.425Z,89.34
2022-11-21T20:23:48.923Z,89.54
2022-11-21T20:26:17.843Z,89.74
2022-11-21T20:28:44.359Z,89.44
2022-11-21T20:31:13.691Z,89.60
2022-11-21T20:33:42.809Z,88.85
2022-11-21T20:36:14.279Z,89.13
2022-11-21T20:38:41.703Z,88.65
2022-11-21T20:41:08.318Z,88.70
2022-11-21T20:44:03.174Z,88.66
2022-11-21T20:46:21.777Z,89.07
2022-11-21T20:48:48.419Z,88.33
2022-11-21T20:54:03.907Z,88.52
2022-11-21T20:56:35.126Z,88.47
2022-11-21T20:59:02.253Z,88.54
2022-11-21T21:01:29.178Z,88.34
2022-11-21T21:03:55.729Z,88.52
2022-11-21T21:06:24.139Z,88.24
2022-11-21T21:08:51.629Z,87.32
2022-11-21T21:11:50.459Z,87.72
2022-11-21T21:14:09.680Z,87.71
2022-11-21T21:16:36.228Z,87.05
2022-11-21T21:19:02.826Z,87.38
2022-11-21T21:21:30.647Z,87.10
2022-11-21T21:24:02.080Z,87.43
2022-11-21T21:26:30.156Z,87.22
2022-11-21T21:28:58.030Z,87.68
2022-11-21T21:31:24.533Z,87.59
2022-11-21T21:33:50.984Z,87.50
2022-11-21T21:36:22.021Z,87.71
2022-11-21T21:38:58.764Z,88.18
2022-11-21T21:41:27.318Z,87.70
2022-11-21T21:43:55.062Z,87.88
2022-11-21T21:46:23.608Z,87.43
2022-11-21T21:48:53.066Z,87.21
2022-11-21T21:51:22.146Z,87.87
2022-11-21T21:53:49.780Z,87.46
2022-11-21T21:56:17.638Z,87.10
2022-11-21T21:58:46.148Z,87.44
2022-11-21T22:01:17.024Z,87.27
2022-11-21T22:03:45.008Z,87.50
2022-11-21T22:06:16.724Z,87.43
2022-11-21T22:08:44.270Z,87.62
2022-11-21T22:11:13.708Z,87.58
2022-11-21T22:13:41.877Z,87.51
2022-11-21T22:16:11.070Z,87.37
2022-11-21T22:18:38.248Z,87.48
2022-11-21T22:21:21.479Z,87.31
2022-11-21T22:26:34.579Z,87.45
2022-11-21T22:29:01.010Z,87.36
2022-11-21T22:31:30.196Z,87.82
2022-11-21T22:33:57.226Z,87.93
2022-11-21T22:36:23.614Z,88.09
2022-11-21T22:38:53.740Z,87.41
2022-11-21T22:41:22.516Z,88.00
2022-11-21T22:43:53.752Z,88.26
2022-11-21T22:46:20.621Z,88.34
2022-11-21T22:48:48.042Z,88.03
2022-11-21T22:51:17.094Z,87.93
2022-11-21T22:53:45.937Z,88.70
2022-11-21T22:56:12.895Z,88.07
2022-11-21T22:58:40.519Z,88.20
2022-11-21T23:01:14.825Z,87.93
2022-11-21T23:03:42.629Z,87.79
2022-11-21T23:06:14.221Z,87.85
2022-11-21T23:08:41.497Z,87.33
2022-11-21T23:11:13.079Z,87.88
2022-11-21T23:13:41.336Z,87.59
2022-11-21T23:16:08.422Z,87.43
2022-11-21T23:18:35.403Z,87.50
2022-11-21T23:21:02.159Z,87.14
2022-11-21T23:23:28.630Z,87.84
2022-11-21T23:25:55.103Z,87.47
2022-11-21T23:28:22.179Z,87.26
2022-11-21T23:30:49.423Z,87.57
2022-11-21T23:33:16.345Z,87.62
2022-11-21T23:35:43.633Z,87.39
2022-11-21T23:38:10.945Z,88.37
2022-11-21T23:40:37.388Z,88.56
2022-11-21T23:43:04.171Z,88.04
2022-11-21T23:45:30.718Z,88.79
2022-11-21T23:47:57.148Z,88.42
2022-11-21T23:50:23.584Z,88.56
2022-11-21T23:52:50.031Z,88.51
2022-11-21T23:55:17.075Z,88.36
2022-11-21T23:57:48.226Z,88.52
